createdAt,value
2023-10-25T00:04:10.481Z,11.42
2023-10-25T00:08:23.163Z,11.39
2023-10-25T00:12:35.812Z,11.31
2023-10-25T00:16:48.425Z,11.28
2023-10-25T00:21:01.003Z,11.28
2023-10-25T00:25:13.573Z,11.25
2023-10-25T00:29:26.200Z,11.21
2023-10-25T00:33:38.786Z,11.21
2023-10-25T00:37:51.367Z,10.97
2023-10-25T00:42:03.960Z,10.98
2023-10-25T00:46:26.983Z,11.01
2023-10-25T00:50:40.417Z,10.99
2023-10-25T00:54:53.767Z,11.00
2023-10-25T00:59:06.675Z,11.00
2023-10-25T01:03:19.960Z,10.94
2023-10-25T01:07:32.665Z,10.81
2023-10-25T01:11:45.215Z,10.86
2023-10-25T01:15:58.055Z,10.72
2023-10-25T01:20:11.317Z,10.68
2023-10-25T01:24:24.979Z,10.80
2023-10-25T01:28:37.589Z,10.76
2023-10-25T01:32:50.216Z,10.48
2023-10-25T01:37:02.933Z,10.62
2023-10-25T01:41:18.271Z,10.24
2023-10-25T01:45:32.349Z,10.63
2023-10-25T01:49:45.277Z,10.51
2023-10-25T01:53:57.837Z,10.39
2023-10-25T01:58:10.862Z,10.13
2023-10-25T02:02:23.977Z,9.95
2023-10-25T02:06:46.687Z,10.39
2023-10-25T02:10:59.273Z,10.41
2023-10-25T02:15:12.315Z,10.36
2023-10-25T02:19:24.874Z,10.03
2023-10-25T02:23:40.632Z,10.28
2023-10-25T02:27:53.216Z,9.79
2023-10-25T02:32:09.617Z,10.26
2023-10-25T02:36:22.232Z,10.16
2023-10-25T02:40:34.786Z,10.07
2023-10-25T02:44:47.681Z,9.88
2023-10-25T02:49:00.299Z,9.81
2023-10-25T02:53:12.885Z,9.71
2023-10-25T02:57:26.838Z,9.61
2023-10-25T03:01:39.514Z,9.70
2023-10-25T03:05:52.610Z,9.66
2023-10-25T03:10:05.817Z,9.49
2023-10-25T03:14:18.423Z,9.57
2023-10-25T03:18:30.976Z,9.51
2023-10-25T03:22:43.739Z,9.38
2023-10-25T03:26:56.268Z,9.21
2023-10-25T03:31:10.582Z,9.23
2023-10-25T03:35:23.375Z,9.33
2023-10-25T03:39:37.606Z,9.38
2023-10-25T03:43:50.150Z,9.13
2023-10-25T03:48:02.838Z,8.94
2023-10-25T03:52:15.531Z,9.32
2023-10-25T03:56:28.241Z,9.31
2023-10-25T04:00:40.779Z,9.14
2023-10-25T04:04:53.407Z,9.04
2023-10-25T04:09:10.095Z,9.05
2023-10-25T04:13:24.117Z,8.92
2023-10-25T04:17:36.732Z,8.92
2023-10-25T04:21:49.343Z,8.86
2023-10-25T04:26:20.179Z,8.82
2023-10-25T04:30:35.068Z,8.74
2023-10-25T04:34:47.575Z,8.57
2023-10-25T04:39:00.103Z,8.43
2023-10-25T04:43:12.712Z,8.29
2023-10-25T04:47:25.721Z,8.31
2023-10-25T04:51:38.380Z,7.99
2023-10-25T04:55:51.354Z,8.22
2023-10-25T05:00:04.424Z,8.15
2023-10-25T05:04:17.051Z,8.23
2023-10-25T05:08:30.115Z,8.17
2023-10-25T05:12:48.928Z,8.09
2023-10-25T05:17:07.540Z,8.02
2023-10-25T05:21:20.978Z,8.00
2023-10-25T05:25:34.078Z,7.97
2023-10-25T05:29:47.039Z,7.98
2023-10-25T05:34:00.089Z,8.00
2023-10-25T05:38:13.188Z,7.93
2023-10-25T05:42:26.761Z,7.97
2023-10-25T05:46:39.488Z,8.02
2023-10-25T05:50:53.006Z,7.95
2023-10-25T05:55:06.523Z,7.94
2023-10-25T05:59:19.460Z,7.90
2023-10-25T06:03:32.748Z,7.86
2023-10-25T06:07:45.883Z,7.76
2023-10-25T06:11:58.846Z,7.83
2023-10-25T06:16:12.020Z,7.88
2023-10-25T06:20:24.635Z,7.93
2023-10-25T06:24:37.189Z,7.98
2023-10-25T06:28:49.812Z,8.05
2023-10-25T06:33:02.407Z,8.15
2023-10-25T06:37:15.445Z,8.26
2023-10-25T06:41:28.395Z,8.29
2023-10-25T06:45:41.668Z,8.27
2023-10-25T06:49:54.724Z,8.48
2023-10-25T06:54:08.345Z,8.57
2023-10-25T06:58:21.333Z,8.79
2023-10-25T07:02:52.208Z,9.05
2023-10-25T07:07:11.444Z,9.42
2023-10-25T07:11:25.289Z,9.51
2023-10-25T07:15:38.424Z,9.41
2023-10-25T07:19:51.054Z,9.08
2023-10-25T07:24:03.592Z,9.51
2023-10-25T07:28:16.603Z,9.26
2023-10-25T07:32:29.223Z,9.12
2023-10-25T07:36:41.740Z,9.74
2023-10-25T07:40:54.624Z,9.94
2023-10-25T07:45:07.664Z,10.02
2023-10-25T07:49:20.361Z,10.35
2023-10-25T07:53:33.457Z,10.52
2023-10-25T08:02:01.597Z,10.89
2023-10-25T08:06:15.011Z,11.11
2023-10-25T08:10:28.357Z,11.24
2023-10-25T08:14:41.034Z,11.17
2023-10-25T08:18:53.727Z,11.34
2023-10-25T08:23:06.304Z,11.40
2023-10-25T08:27:20.447Z,11.68
2023-10-25T08:31:37.173Z,11.70
2023-10-25T08:35:50.514Z,11.90
2023-10-25T08:40:05.488Z,12.15
2023-10-25T08:44:18.450Z,12.01
2023-10-25T08:48:32.729Z,12.40
2023-10-25T08:52:47.057Z,12.87
2023-10-25T08:56:59.905Z,12.57
2023-10-25T09:01:12.589Z,13.06
2023-10-25T09:05:25.222Z,13.16
2023-10-25T09:09:41.499Z,13.60
2023-10-25T09:13:58.994Z,14.16
2023-10-25T09:18:11.624Z,14.60
2023-10-25T09:22:28.192Z,14.80
2023-10-25T09:26:41.640Z,15.02
2023-10-25T09:30:54.414Z,15.32
2023-10-25T09:35:08.267Z,15.45
2023-10-25T09:39:20.846Z,15.72
2023-10-25T09:43:34.499Z,15.72
2023-10-25T09:47:51.384Z,15.79
2023-10-25T09:52:18.352Z,16.05
2023-10-25T09:56:31.360Z,16.09
2023-10-25T10:00:44.300Z,16.57
2023-10-25T10:05:08.128Z,16.85
2023-10-25T10:09:36.061Z,17.11
2023-10-25T10:14:10.198Z,17.14
2023-10-25T10:18:22.931Z,17.56
2023-10-25T10:22:35.975Z,17.31
2023-10-25T10:26:49.576Z,17.64
2023-10-25T10:31:02.708Z,17.98
2023-10-25T10:35:23.698Z,18.19
2023-10-25T10:39:38.142Z,18.12
2023-10-25T10:43:50.679Z,18.26
2023-10-25T10:48:24.649Z,18.35
2023-10-25T10:52:37.334Z,18.59
2023-10-25T10:56:49.888Z,18.72
2023-10-25T11:01:02.412Z,19.29
2023-10-25T11:05:17.477Z,19.11
2023-10-25T11:09:30.122Z,19.22
2023-10-25T11:13:42.749Z,19.55
2023-10-25T11:17:55.810Z,19.58
2023-10-25T11:22:08.454Z,19.71
2023-10-25T11:26:21.012Z,19.95
2023-10-25T11:30:36.619Z,19.27
2023-10-25T11:34:54.151Z,19.50
2023-10-25T11:39:10.631Z,19.57
2023-10-25T11:43:23.249Z,19.59
2023-10-25T11:47:36.459Z,19.40
2023-10-25T11:51:49.568Z,19.90
2023-10-25T11:56:02.087Z,19.26
2023-10-25T12:00:15.396Z,19.12
2023-10-25T12:04:27.981Z,19.68
2023-10-25T12:08:44.386Z,20.08
2023-10-25T12:12:56.996Z,20.32
2023-10-25T12:17:09.727Z,20.70
2023-10-25T12:21:22.325Z,20.71
2023-10-25T12:25:36.789Z,19.84
2023-10-25T12:29:49.398Z,19.15
2023-10-25T12:34:02.750Z,18.59
2023-10-25T12:38:15.277Z,18.52
2023-10-25T12:42:27.847Z,18.32
2023-10-25T12:46:41.443Z,18.12
2023-10-25T12:50:57.165Z,18.61
2023-10-25T12:55:11.612Z,19.40
2023-10-25T12:59:24.143Z,20.28
2023-10-25T13:03:36.675Z,19.25
2023-10-25T13:07:49.331Z,19.16
2023-10-25T13:12:03.211Z,19.14
2023-10-25T13:16:15.883Z,19.01
2023-10-25T13:20:28.510Z,19.72
2023-10-25T13:24:41.264Z,21.34
2023-10-25T13:28:56.613Z,22.00
2023-10-25T13:33:09.252Z,22.02
2023-10-25T13:37:23.037Z,21.80
2023-10-25T13:41:35.835Z,20.97
2023-10-25T13:45:48.432Z,21.53
2023-10-25T13:50:01.065Z,20.04
2023-10-25T13:54:13.604Z,20.68
2023-10-25T13:58:26.131Z,21.43
2023-10-25T14:02:38.814Z,23.15
2023-10-25T14:06:52.983Z,20.33
2023-10-25T14:11:05.533Z,18.97
2023-10-25T14:15:18.087Z,18.34
2023-10-25T14:19:30.657Z,17.83
2023-10-25T14:23:45.312Z,17.75
2023-10-25T14:27:57.889Z,17.66
2023-10-25T14:32:10.479Z,17.41
2023-10-25T14:36:23.046Z,17.58
2023-10-25T14:40:41.233Z,17.77
2023-10-25T14:44:53.849Z,18.16
2023-10-25T14:49:07.706Z,18.22
2023-10-25T14:53:22.466Z,17.72
2023-10-25T14:57:35.060Z,17.26
2023-10-25T15:01:47.621Z,16.81
2023-10-25T15:06:00.251Z,16.80
2023-10-25T15:10:12.878Z,16.64
2023-10-25T15:14:26.308Z,16.15
2023-10-25T15:18:41.483Z,16.01
2023-10-25T15:22:55.005Z,15.97
2023-10-25T15:27:08.037Z,15.70
2023-10-25T15:31:21.748Z,15.55
2023-10-25T15:35:34.795Z,15.46
2023-10-25T15:40:00.461Z,15.30
2023-10-25T15:44:19.664Z,14.98
2023-10-25T15:48:32.452Z,14.92
2023-10-25T15:52:49.900Z,14.77
2023-10-25T15:57:08.005Z,14.65
2023-10-25T16:01:31.562Z,14.50
2023-10-25T16:05:46.162Z,14.31
2023-10-25T16:09:58.715Z,14.17
2023-10-25T16:14:12.053Z,14.04
2023-10-25T16:18:25.090Z,13.99
2023-10-25T16:22:37.709Z,13.93
2023-10-25T16:26:50.254Z,13.96
2023-10-25T16:31:06.902Z,13.97
2023-10-25T16:35:19.448Z,14.18
2023-10-25T16:39:32.739Z,14.19
2023-10-25T16:43:45.295Z,14.59
2023-10-25T16:47:57.828Z,14.80
2023-10-25T16:52:10.376Z,14.72
2023-10-25T16:56:23.012Z,14.62
2023-10-25T17:00:35.805Z,14.40
2023-10-25T17:04:48.519Z,14.17
2023-10-25T17:09:01.116Z,13.88
2023-10-25T17:13:14.079Z,13.79
2023-10-25T17:17:27.142Z,13.64
2023-10-25T17:21:39.801Z,13.37
2023-10-25T17:25:52.814Z,13.40
2023-10-25T17:30:07.175Z,13.30
2023-10-25T17:34:19.757Z,13.31
2023-10-25T17:38:34.216Z,13.14
2023-10-25T17:42:48.106Z,12.98
2023-10-25T17:47:00.661Z,12.93
2023-10-25T17:51:13.672Z,12.62
2023-10-25T17:55:26.638Z,12.32
2023-10-25T17:59:39.170Z,12.24
2023-10-25T18:03:51.755Z,12.30
2023-10-25T18:08:04.378Z,12.27
2023-10-25T18:12:19.431Z,12.29
2023-10-25T18:16:32.040Z,12.16
2023-10-25T18:20:45.541Z,12.03
2023-10-25T18:24:58.108Z,12.23
2023-10-25T18:29:10.645Z,12.15
2023-10-25T18:33:24.389Z,12.28
2023-10-25T18:37:37.211Z,12.40
2023-10-25T18:41:50.916Z,12.16
2023-10-25T18:46:06.259Z,12.10
2023-10-25T18:50:18.803Z,11.84
2023-10-25T18:54:32.065Z,11.51
2023-10-25T18:58:44.523Z,11.49
2023-10-25T19:02:57.711Z,11.36
2023-10-25T19:07:21.598Z,11.42
2023-10-25T19:11:37.248Z,11.28
2023-10-25T19:15:50.597Z,11.16
2023-10-25T19:24:21.238Z,10.90
2023-10-25T19:28:34.199Z,10.90
2023-10-25T19:32:46.737Z,11.09
2023-10-25T19:37:01.972Z,11.12
2023-10-25T19:41:14.543Z,11.11
2023-10-25T19:45:27.172Z,11.28
2023-10-25T19:49:39.710Z,11.47
2023-10-25T19:53:52.269Z,11.41
2023-10-25T19:58:04.844Z,11.48
2023-10-25T20:02:17.435Z,11.47
2023-10-25T20:06:29.926Z,11.64
2023-10-25T20:10:42.441Z,11.92
2023-10-25T20:14:55.064Z,12.12
2023-10-25T20:19:08.638Z,12.17
2023-10-25T20:23:21.156Z,12.42
2023-10-25T20:27:35.205Z,12.30
2023-10-25T20:31:50.033Z,12.54
2023-10-25T20:36:02.599Z,12.76
2023-10-25T20:40:15.681Z,12.67
2023-10-25T20:44:28.197Z,12.82
2023-10-25T20:48:40.670Z,12.80
2023-10-25T20:52:53.229Z,12.90
2023-10-25T20:57:09.981Z,12.80
2023-10-25T21:01:22.519Z,12.80
2023-10-25T21:05:35.101Z,12.81
2023-10-25T21:09:47.819Z,12.96
2023-10-25T21:14:00.374Z,12.75
2023-10-25T21:18:12.933Z,12.79
2023-10-25T21:22:25.421Z,12.73
2023-10-25T21:26:37.946Z,12.82
2023-10-25T21:30:50.433Z,12.68
2023-10-25T21:35:03.886Z,12.64
2023-10-25T21:39:16.432Z,12.60
2023-10-25T21:43:28.938Z,12.39
2023-10-25T21:47:41.505Z,12.35
2023-10-25T21:51:53.975Z,12.23
2023-10-25T21:56:24.536Z,12.19
2023-10-25T22:00:38.012Z,12.07
2023-10-25T22:04:50.606Z,11.88
2023-10-25T22:09:03.155Z,11.89
2023-10-25T22:13:16.009Z,11.94
2023-10-25T22:17:29.734Z,11.92
2023-10-25T22:21:44.964Z,11.99
2023-10-25T22:25:57.459Z,11.90
2023-10-25T22:30:10.421Z,11.79
2023-10-25T22:34:23.334Z,11.85
2023-10-25T22:38:36.292Z,11.59
2023-10-25T22:42:48.810Z,11.45
2023-10-25T22:47:01.392Z,11.44
2023-10-25T22:51:14.263Z,11.39
2023-10-25T22:55:27.270Z,11.17
2023-10-25T22:59:39.868Z,11.13
2023-10-25T23:03:52.509Z,11.24
2023-10-25T23:08:05.413Z,11.03
2023-10-25T23:12:21.623Z,10.88
2023-10-25T23:16:34.766Z,11.25
2023-10-25T23:20:52.263Z,11.63
2023-10-25T23:25:06.809Z,11.79
2023-10-25T23:29:19.592Z,11.81
2023-10-25T23:33:36.965Z,11.89
2023-10-25T23:37:49.754Z,11.85
2023-10-25T23:42:02.379Z,11.94
2023-10-25T23:46:15.040Z,11.94
2023-10-25T23:50:27.962Z,11.96
2023-10-25T23:54:52.823Z,12.00
2023-10-25T23:59:07.350Z,12.05
